Hadley, Michigan
Current Conditions -  °F | °C
As of 12:34 PM on Monday 24 Nov 2014 (Local Time) from KD95 Reporting Station
Overcast Overcast  
Wind Chill: 57°   Ceiling: 2600
Heat Index: 57°   Visibility: 10mi
Dew Point: 49°   Wind: 14mph
Humidity: 75%   Direction: 220°SW
Pressure: 29.06"   Gusts: 29mph
Location:  42.95°N, 83.4°W
Report Text: KD95 241734Z AUTO 22012G25KT 10SM OVC026 14/10 A2906 RMK AO2 T01380095
Loading
Personal Weather Stations






























Interactive Weather Map New forecast layout! Learn more

10-Day Weather Forecast

Advertisements
Track Severe Weather on mobile